Time;durP1;ratioP1;P1;durP2;ratioP2;P2;SDS_P1;SDS_P2;PMS_P1;PMS_P2;Temp;Humidity;BMP_temperature;BMP_pressure;BME280_temperature;BME280_humidity;BME280_pressure;Samples;Min_cycle;Max_cycle;Signal;HPM_P1;HPM_P2
2021/05/10 07:43:47;;;;;;;3.07;0.90;;;17.00;99.90;;;;;;4976920;23;20236;-71
2021/05/10 07:46:13;;;;;;;0.80;0.67;;;17.10;99.90;;;;;;4946210;29;20221;-72
2021/05/10 07:48:40;;;;;;;1.23;0.80;;;17.10;99.90;;;;;;4951525;29;20709;-70
2021/05/10 07:51:06;;;;;;;1.67;0.83;;;17.10;99.90;;;;;;4956590;29;20250;-70
2021/05/10 07:53:32;;;;;;;2.27;0.83;;;17.00;99.90;;;;;;4957084;28;20271;-70
2021/05/10 07:55:59;;;;;;;1.70;1.00;;;17.00;99.90;;;;;;4957304;29;20216;-69
2021/05/10 07:58:27;;;;;;;1.60;0.97;;;16.90;99.90;;;;;;4957099;29;20212;-70
2021/05/10 08:00:56;;;;;;;2.10;0.97;;;16.90;99.90;;;;;;4942543;29;20233;-68
2021/05/10 08:03:27;;;;;;;2.00;0.90;;;16.80;99.90;;;;;;4941091;29;20215;-72
2021/05/10 08:05:54;;;;;;;1.73;0.73;;;17.00;99.90;;;;;;4955060;29;20247;-75
2021/05/10 08:08:23;;;;;;;1.83;0.87;;;17.10;99.90;;;;;;4945942;29;20209;-70
2021/05/10 08:10:49;;;;;;;3.53;0.97;;;17.20;99.90;;;;;;4934860;29;20236;-68
2021/05/10 08:13:16;;;;;;;1.87;0.90;;;17.30;99.90;;;;;;4927295;29;20267;-72
2021/05/10 08:15:43;;;;;;;1.87;1.10;;;17.40;99.90;;;;;;4948090;29;20215;-76
2021/05/10 08:18:11;;;;;;;1.50;0.80;;;17.40;99.90;;;;;;4955802;29;20214;-73
2021/05/10 08:20:37;;;;;;;1.53;0.70;;;17.30;99.90;;;;;;4955932;29;20232;-68
2021/05/10 08:23:04;;;;;;;1.30;0.87;;;17.20;99.90;;;;;;4942020;29;20277;-72
2021/05/10 08:25:30;;;;;;;1.57;0.70;;;17.20;99.90;;;;;;4917485;29;20234;-69
2021/05/10 08:27:56;;;;;;;2.57;0.90;;;17.20;99.90;;;;;;4917250;29;20210;-72
2021/05/10 08:30:23;;;;;;;1.93;0.80;;;17.40;99.90;;;;;;4918163;29;20245;-73
2021/05/10 08:32:49;;;;;;;1.37;0.80;;;17.40;99.90;;;;;;4918188;29;20213;-72
2021/05/10 08:35:16;;;;;;;1.57;0.80;;;17.40;99.90;;;;;;4918404;29;20210;-72
2021/05/10 08:37:43;;;;;;;1.40;0.77;;;17.40;99.90;;;;;;4934611;29;20613;-70
2021/05/10 08:40:10;;;;;;;1.80;0.83;;;17.30;99.90;;;;;;4937101;29;20233;-71
2021/05/10 08:42:36;;;;;;;2.40;0.90;;;17.30;99.90;;;;;;4936991;29;20260;-71
2021/05/10 08:45:02;;;;;;;1.20;0.87;;;17.50;99.90;;;;;;4936864;29;20228;-71
2021/05/10 08:47:32;;;;;;;3.13;0.80;;;17.40;99.90;;;;;;4937168;29;20255;-69
2021/05/10 08:50:00;;;;;;;1.53;0.80;;;17.30;99.90;;;;;;4937152;29;20248;-71
2021/05/10 08:52:28;;;;;;;1.17;0.77;;;17.20;99.90;;;;;;4936636;29;20403;-70
2021/05/10 08:54:54;;;;;;;1.43;0.90;;;17.20;99.90;;;;;;4936911;29;20232;-70
2021/05/10 08:57:20;;;;;;;1.70;0.80;;;17.20;99.90;;;;;;4936675;29;20217;-70
2021/05/10 08:59:46;;;;;;;1.37;0.90;;;17.40;99.90;;;;;;4936590;29;20841;-71
2021/05/10 09:02:13;;;;;;;1.43;0.70;;;17.60;99.90;;;;;;4936918;29;20228;-71
2021/05/10 09:04:40;;;;;;;2.00;0.90;;;17.60;99.90;;;;;;4936054;29;20687;-71
2021/05/10 09:07:11;;;;;;;2.77;1.00;;;17.70;99.90;;;;;;4936767;29;20212;-69
2021/05/10 09:09:51;;;;;;;1.43;0.70;;;17.80;99.90;;;;;;4936750;29;20244;-69
2021/05/10 09:12:19;;;;;;;3.80;0.80;;;17.70;99.90;;;;;;4936634;29;20213;-70
2021/05/10 09:14:46;;;;;;;2.70;0.80;;;17.80;99.90;;;;;;4936465;29;20219;-69
2021/05/10 09:17:12;;;;;;;3.97;0.93;;;17.90;99.90;;;;;;4936656;29;20205;-69
2021/05/10 09:19:48;;;;;;;2.20;0.70;;;17.90;99.90;;;;;;4936754;29;20220;-70
2021/05/10 09:22:15;;;;;;;3.70;0.90;;;18.10;99.90;;;;;;4936625;29;20288;-69
2021/05/10 09:24:46;;;;;;;2.77;0.60;;;18.20;99.90;;;;;;4936279;29;20205;-68
2021/05/10 09:27:26;;;;;;;1.10;0.60;;;18.50;99.90;;;;;;4936566;29;20216;-69
2021/05/10 09:30:11;;;;;;;2.57;0.87;;;18.70;99.90;;;;;;4935910;29;20789;-69
2021/05/10 09:32:38;;;;;;;1.97;0.80;;;18.90;99.90;;;;;;4935988;29;20212;-70
2021/05/10 09:35:25;;;;;;;2.43;1.00;;;19.20;99.90;;;;;;4935967;29;20213;-70
2021/05/10 09:37:59;;;;;;;1.57;0.80;;;19.30;99.90;;;;;;4954340;29;20234;-70
2021/05/10 09:40:28;;;;;;;3.90;0.70;;;19.40;99.90;;;;;;4955072;29;20231;-70
2021/05/10 09:42:58;;;;;;;2.50;0.88;;;19.50;99.90;;;;;;4955022;29;20208;-70
2021/05/10 09:45:46;;;;;;;2.05;0.82;;;19.60;99.90;;;;;;4955392;29;20212;-70
2021/05/10 09:48:21;;;;;;;1.90;1.47;;;20.00;99.90;;;;;;4955068;29;20575;-70
2021/05/10 09:50:50;;;;;;;3.33;0.97;;;20.20;99.90;;;;;;4955051;29;20243;-69
2021/05/10 09:53:26;;;;;;;1.40;0.65;;;20.40;99.90;;;;;;4955199;29;20279;-70
2021/05/10 09:55:53;;;;;;;1.15;0.52;;;20.70;99.90;;;;;;4955084;29;20662;-69
2021/05/10 09:58:23;;;;;;;0.90;0.50;;;20.60;99.90;;;;;;4955135;29;20219;-69
2021/05/10 10:00:57;;;;;;;2.35;0.77;;;20.80;99.90;;;;;;4943182;29;20240;-69
2021/05/10 10:03:33;;;;;;;2.13;0.77;;;21.20;99.90;;;;;;4916893;29;20232;-70
2021/05/10 10:06:02;;;;;;;2.80;0.88;;;21.10;99.90;;;;;;4916980;29;20213;-70
2021/05/10 10:08:28;;;;;;;2.70;0.82;;;20.70;99.90;;;;;;4916436;29;20288;-70
2021/05/10 10:10:56;;;;;;;1.50;0.90;;;20.70;99.90;;;;;;4916378;29;20245;-70
2021/05/10 10:13:23;;;;;;;1.70;0.70;;;20.50;99.90;;;;;;4916739;29;20209;-70
2021/05/10 10:15:50;;;;;;;1.80;0.50;;;20.30;99.90;;;;;;4915344;29;20261;-71
2021/05/10 10:18:17;;;;;;;1.23;0.75;;;20.10;99.90;;;;;;4917107;29;20281;-69
2021/05/10 10:20:45;;;;;;;1.10;0.70;;;19.90;99.90;;;;;;4916689;29;20229;-69
2021/05/10 10:23:14;;;;;;;1.15;0.63;;;19.90;99.90;;;;;;4916363;29;20254;-70
2021/05/10 10:25:41;;;;;;;2.50;0.60;;;20.00;99.90;;;;;;4916647;29;20539;-70
2021/05/10 10:28:09;;;;;;;1.17;0.60;;;20.10;99.90;;;;;;4916025;29;20264;-72
2021/05/10 10:30:42;;;;;;;1.30;0.60;;;20.30;99.90;;;;;;4916198;29;20305;-70
2021/05/10 10:33:13;;;;;;;3.08;0.50;;;20.40;99.90;;;;;;4916214;29;20268;-70
2021/05/10 10:35:44;;;;;;;3.05;0.47;;;20.40;99.90;;;;;;4917401;29;20220;-70
2021/05/10 10:38:11;;;;;;;2.65;0.50;;;20.40;99.90;;;;;;4954742;29;20235;-70
2021/05/10 10:40:38;;;;;;;2.53;0.73;;;20.50;99.70;;;;;;4954332;29;20238;-69
2021/05/10 10:43:24;;;;;;;4.00;1.13;;;20.10;99.90;;;;;;4954093;29;20219;-70
2021/05/10 10:46:28;;;;;;;2.93;0.70;;;19.70;99.90;;;;;;4952540;29;20255;-69
2021/05/10 10:48:57;;;;;;;1.30;0.50;;;19.80;99.90;;;;;;4952873;29;20212;-70
2021/05/10 10:51:25;;;;;;;2.90;0.80;;;20.10;99.90;;;;;;4953085;29;20246;-69
2021/05/10 10:53:54;;;;;;;1.33;0.70;;;20.40;99.90;;;;;;4953740;29;20214;-70
2021/05/10 10:56:49;;;;;;;1.73;0.52;;;20.70;99.90;;;;;;4954198;29;20204;-72
2021/05/10 10:59:34;;;;;;;1.92;0.50;;;20.60;99.90;;;;;;4954244;29;20208;-70
2021/05/10 11:02:19;;;;;;;1.70;0.50;;;20.50;99.90;;;;;;4924255;29;20549;-70
2021/05/10 11:04:47;;;;;;;5.15;0.55;;;20.50;99.30;;;;;;4920659;29;20228;-71
2021/05/10 11:07:13;;;;;;;3.07;0.57;;;20.30;98.70;;;;;;4918012;29;20237;-72
2021/05/10 11:09:54;;;;;;;2.93;0.47;;;19.70;99.50;;;;;;4921186;29;20252;-70
2021/05/10 11:12:48;;;;;;;2.15;0.75;;;19.90;99.50;;;;;;4920788;29;20247;-72
2021/05/10 11:15:30;;;;;;;1.67;0.32;;;20.20;99.60;;;;;;4915706;29;20213;-72
2021/05/10 11:17:57;;;;;;;1.87;0.40;;;20.20;99.10;;;;;;4917981;29;20210;-72
2021/05/10 11:20:38;;;;;;;1.30;0.50;;;19.80;99.60;;;;;;4921148;29;20250;-71
2021/05/10 11:23:30;;;;;;;1.33;0.50;;;19.90;99.90;;;;;;4920350;29;20221;-71
2021/05/10 11:25:57;;;;;;;3.45;0.60;;;20.20;99.90;;;;;;4920702;29;20233;-72
2021/05/10 11:28:43;;;;;;;1.27;0.40;;;20.30;99.90;;;;;;4923894;29;20256;-72
2021/05/10 11:31:10;;;;;;;1.07;0.40;;;20.30;99.90;;;;;;4927095;29;20237;-72
2021/05/10 11:34:04;;;;;;;0.80;0.37;;;20.30;99.70;;;;;;4932430;29;20202;-72
2021/05/10 11:36:32;;;;;;;1.37;0.43;;;20.50;99.90;;;;;;4922547;29;20205;-73
2021/05/10 11:38:59;;;;;;;0.82;0.30;;;20.70;99.90;;;;;;4918797;29;20230;-72
2021/05/10 11:41:29;;;;;;;2.22;0.35;;;20.60;99.80;;;;;;4925944;29;20284;-73
2021/05/10 11:43:57;;;;;;;0.85;0.55;;;20.50;99.80;;;;;;4924119;29;20261;-71
2021/05/10 11:46:38;;;;;;;0.97;0.40;;;20.40;99.40;;;;;;4924121;29;20205;-72
2021/05/10 11:49:07;;;;;;;2.92;0.40;;;20.60;99.90;;;;;;4924037;29;20232;-71
2021/05/10 11:51:38;;;;;;;2.07;0.33;;;20.60;98.40;;;;;;4926628;29;20237;-72
2021/05/10 11:54:07;;;;;;;1.83;0.70;;;20.50;97.60;;;;;;4923440;29;20221;-72
2021/05/10 11:56:39;;;;;;;1.75;0.65;;;20.50;98.00;;;;;;4920020;29;20209;-72
2021/05/10 11:59:24;;;;;;;2.38;0.70;;;20.60;98.20;;;;;;4918533;29;20225;-72
2021/05/10 12:01:50;;;;;;;2.17;0.43;;;20.50;98.00;;;;;;4917562;29;20209;-72
2021/05/10 12:04:23;;;;;;;2.75;0.70;;;20.60;98.20;;;;;;4917950;29;20244;-72
2021/05/10 12:06:49;;;;;;;0.85;0.30;;;20.60;98.50;;;;;;4916655;29;20218;-72
2021/05/10 12:09:35;;;;;;;2.63;0.82;;;20.70;98.40;;;;;;4916475;29;20206;-72
2021/05/10 12:12:03;;;;;;;4.63;0.50;;;20.70;97.40;;;;;;4916802;29;20688;-73
2021/05/10 12:14:29;;;;;;;0.82;0.30;;;20.60;98.10;;;;;;4916785;29;20229;-72
2021/05/10 12:17:03;;;;;;;2.63;0.40;;;20.70;98.20;;;;;;4918650;29;20218;-73
2021/05/10 12:19:54;;;;;;;3.75;0.50;;;20.70;97.50;;;;;;4918517;29;20220;-72
2021/05/10 12:22:21;;;;;;;4.82;0.47;;;20.70;98.10;;;;;;4918772;29;20206;-71
2021/05/10 12:24:55;;;;;;;3.13;0.70;;;20.90;98.30;;;;;;4918889;29;20221;-72
2021/05/10 12:27:22;;;;;;;4.72;0.35;;;20.70;97.80;;;;;;4918683;29;20756;-72
2021/05/10 12:29:49;;;;;;;2.08;0.60;;;20.70;97.60;;;;;;4918171;29;20604;-73
2021/05/10 12:32:15;;;;;;;1.85;0.40;;;20.90;97.70;;;;;;4918071;29;20210;-73
2021/05/10 12:34:42;;;;;;;2.88;0.40;;;20.80;96.60;;;;;;4918484;29;20209;-73
2021/05/10 12:37:09;;;;;;;1.77;0.80;;;21.00;97.60;;;;;;4918557;29;20265;-73
2021/05/10 12:39:37;;;;;;;2.58;0.52;;;21.10;97.30;;;;;;4917557;29;20224;-72
2021/05/10 12:42:14;;;;;;;2.05;0.40;;;21.10;97.30;;;;;;4918368;29;20677;-72
2021/05/10 12:44:40;;;;;;;1.20;0.43;;;21.20;96.40;;;;;;4918325;29;20273;-72
2021/05/10 12:47:07;;;;;;;3.35;0.40;;;21.10;96.90;;;;;;4918290;29;20640;-72
2021/05/10 12:49:33;;;;;;;0.63;0.40;;;21.00;96.50;;;;;;4918199;29;20213;-72
2021/05/10 12:51:59;;;;;;;0.35;0.20;;;21.00;96.30;;;;;;4918391;29;20588;-72
2021/05/10 12:54:26;;;;;;;2.42;0.40;;;20.90;95.80;;;;;;4918008;29;20661;-73
2021/05/10 12:56:53;;;;;;;1.38;0.43;;;20.90;95.90;;;;;;4918033;29;20214;-73
2021/05/10 12:59:19;;;;;;;0.70;0.28;;;20.90;95.00;;;;;;4917692;29;20206;-73
2021/05/10 13:01:47;;;;;;;1.33;0.50;;;21.00;95.70;;;;;;4917955;29;20731;-74
2021/05/10 13:04:15;;;;;;;1.08;0.45;;;21.10;95.80;;;;;;4918174;29;20216;-73
2021/05/10 13:06:43;;;;;;;2.10;0.40;;;21.00;95.60;;;;;;4918078;29;20213;-73
2021/05/10 13:09:23;;;;;;;2.50;0.50;;;21.00;94.90;;;;;;4917918;29;20605;-73
2021/05/10 13:11:54;;;;;;;0.82;0.45;;;20.90;94.40;;;;;;4917834;29;20661;-72
2021/05/10 13:14:24;;;;;;;2.10;0.50;;;20.90;94.80;;;;;;4917814;29;20223;-72
2021/05/10 13:16:57;;;;;;;1.77;0.50;;;21.00;95.40;;;;;;4917815;29;20300;-72
2021/05/10 13:19:37;;;;;;;3.85;0.70;;;21.20;95.50;;;;;;4917809;29;20257;-72
2021/05/10 13:33:36;;;;;;;2.70;0.38;;;21.50;93.50;;;;;;4924889;29;20204;-72
2021/05/10 13:36:04;;;;;;;3.22;0.45;;;21.80;93.40;;;;;;4935069;29;20244;-72
2021/05/10 13:38:31;;;;;;;1.40;0.63;;;21.80;93.30;;;;;;4935535;29;20272;-73
2021/05/10 13:40:59;;;;;;;3.80;0.40;;;21.80;93.30;;;;;;4935029;29;20225;-68
2021/05/10 13:43:32;;;;;;;3.72;0.50;;;21.50;92.80;;;;;;4934959;29;20256;-69
2021/05/10 13:45:59;;;;;;;3.13;0.30;;;21.60;93.20;;;;;;4934929;29;20572;-71
2021/05/10 13:48:27;;;;;;;1.40;0.45;;;21.70;93.00;;;;;;4935165;29;20227;-75
2021/05/10 13:50:53;;;;;;;1.05;0.30;;;21.70;92.20;;;;;;4934690;29;20279;-73
2021/05/10 13:53:19;;;;;;;1.30;0.40;;;21.70;93.00;;;;;;4935175;29;20243;-72
2021/05/10 13:55:45;;;;;;;1.00;0.47;;;21.50;90.80;;;;;;4934700;29;20220;-76
2021/05/10 13:58:12;;;;;;;0.82;0.35;;;21.70;92.40;;;;;;4934572;29;20284;-71
2021/05/10 14:00:39;;;;;;;2.45;0.40;;;21.80;91.60;;;;;;4934576;29;20233;-71
2021/05/10 14:03:05;;;;;;;0.90;0.30;;;21.70;91.80;;;;;;4934953;29;20268;-72
2021/05/10 14:05:35;;;;;;;2.00;0.40;;;21.70;91.90;;;;;;4934548;29;20220;-72
2021/05/10 14:08:01;;;;;;;1.95;0.40;;;21.60;92.30;;;;;;4934608;29;20260;-72
2021/05/10 14:10:28;;;;;;;1.83;0.50;;;21.50;91.60;;;;;;4934739;29;20256;-71
2021/05/10 14:12:55;;;;;;;1.35;0.45;;;21.70;92.00;;;;;;4934876;29;20228;-71
2021/05/10 14:15:21;;;;;;;1.85;0.50;;;21.60;92.30;;;;;;4926701;29;20201;-73
2021/05/10 14:17:49;;;;;;;0.60;0.40;;;21.60;91.60;;;;;;4929292;29;20584;-74
2021/05/10 14:20:18;;;;;;;0.90;0.45;;;21.80;91.10;;;;;;4935071;29;20228;-75
2021/05/10 14:22:44;;;;;;;1.73;0.40;;;21.90;91.60;;;;;;4954091;29;20208;-71
2021/05/10 14:25:12;;;;;;;3.45;0.38;;;21.90;91.20;;;;;;4937429;29;20264;-73
2021/05/10 14:27:38;;;;;;;4.03;0.43;;;22.00;91.80;;;;;;4934229;29;20209;-73
2021/05/10 14:30:06;;;;;;;5.40;0.52;;;22.00;92.20;;;;;;4933992;29;20242;-73
2021/05/10 14:32:32;;;;;;;1.17;0.45;;;22.00;92.10;;;;;;4935494;29;20271;-72
2021/05/10 14:34:59;;;;;;;0.85;0.30;;;22.00;91.90;;;;;;4938417;29;20410;-75
2021/05/10 14:37:25;;;;;;;2.88;0.40;;;21.90;91.90;;;;;;4916590;29;20236;-72
2021/05/10 14:39:52;;;;;;;4.30;0.60;;;21.90;91.80;;;;;;4916793;29;20323;-70
2021/05/10 14:42:19;;;;;;;1.23;0.65;;;21.60;92.10;;;;;;4916581;29;20213;-70
2021/05/10 14:44:45;;;;;;;1.15;0.30;;;21.80;91.90;;;;;;4915863;29;20239;-73
2021/05/10 14:47:12;;;;;;;0.90;0.30;;;21.90;91.80;;;;;;4916719;29;20273;-72
2021/05/10 14:49:38;;;;;;;1.45;0.47;;;21.80;91.60;;;;;;4916086;29;20693;-70
2021/05/10 14:52:06;;;;;;;2.17;0.30;;;21.80;92.00;;;;;;4916258;29;20245;-72
2021/05/10 14:54:32;;;;;;;0.40;0.28;;;21.60;91.70;;;;;;4916025;29;20209;-72
2021/05/10 14:56:58;;;;;;;5.20;0.63;;;21.40;92.00;;;;;;4916412;29;20236;-73
2021/05/10 14:59:24;;;;;;;0.90;0.20;;;21.50;91.70;;;;;;4916689;29;20272;-72
2021/05/10 15:01:51;;;;;;;2.50;0.60;;;21.50;91.80;;;;;;4916934;29;20217;-71
2021/05/10 15:04:17;;;;;;;1.88;0.57;;;21.60;92.50;;;;;;4920111;29;20781;-72
2021/05/10 15:06:44;;;;;;;1.10;0.30;;;21.60;91.60;;;;;;4919771;29;20209;-73
2021/05/10 15:09:11;;;;;;;1.40;0.40;;;21.70;91.70;;;;;;4923775;29;20209;-72
2021/05/10 15:11:38;;;;;;;1.98;0.82;;;21.70;91.30;;;;;;4939810;29;20260;-72
2021/05/10 15:14:05;;;;;;;0.85;0.40;;;21.80;91.50;;;;;;4919652;29;20213;-72
2021/05/10 15:16:31;;;;;;;4.63;0.40;;;21.80;91.50;;;;;;4919859;29;20664;-73
2021/05/10 15:18:57;;;;;;;1.35;0.60;;;22.00;91.20;;;;;;4919951;29;20276;-73
2021/05/10 15:21:24;;;;;;;2.60;0.50;;;22.20;91.00;;;;;;4920027;29;20289;-72
2021/05/10 15:23:51;;;;;;;1.95;0.45;;;22.10;90.10;;;;;;4919456;29;20217;-72
2021/05/10 15:26:18;;;;;;;2.10;0.30;;;21.90;90.00;;;;;;4919493;29;20220;-72
2021/05/10 15:28:45;;;;;;;1.52;0.30;;;21.70;88.00;;;;;;4919893;29;20206;-72
2021/05/10 15:31:12;;;;;;;0.98;0.40;;;21.70;88.90;;;;;;4919274;29;20245;-72
2021/05/10 15:33:38;;;;;;;2.67;0.55;;;21.50;90.10;;;;;;4919310;29;20573;-72
2021/05/10 15:36:05;;;;;;;0.63;0.30;;;21.40;90.40;;;;;;4919231;29;20616;-72
2021/05/10 15:38:31;;;;;;;0.55;0.32;;;21.30;90.80;;;;;;4919311;29;20221;-71
2021/05/10 15:40:58;;;;;;;0.73;0.30;;;21.30;90.70;;;;;;4919906;29;20707;-71
2021/05/10 15:43:25;;;;;;;2.05;0.45;;;21.20;90.80;;;;;;4931959;29;20221;-70
2021/05/10 15:45:51;;;;;;;0.50;0.20;;;21.10;90.80;;;;;;4938226;29;20209;-72
2021/05/10 15:48:17;;;;;;;1.55;0.43;;;21.20;91.40;;;;;;4956852;29;20204;-70
2021/05/10 15:50:44;;;;;;;0.90;0.40;;;21.20;91.60;;;;;;4942935;29;20241;-73
2021/05/10 15:53:10;;;;;;;2.45;0.47;;;21.10;91.30;;;;;;4919469;29;20261;-72
2021/05/10 15:55:36;;;;;;;2.42;0.40;;;21.10;91.70;;;;;;4919275;29;20673;-71
2021/05/10 15:58:03;;;;;;;1.73;0.63;;;21.20;91.00;;;;;;4919180;29;20209;-71
2021/05/10 16:00:30;;;;;;;3.25;0.32;;;21.30;91.00;;;;;;4945567;29;20230;-72
2021/05/10 16:02:56;;;;;;;3.40;0.40;;;21.50;90.90;;;;;;4919125;29;20217;-72
2021/05/10 16:05:22;;;;;;;1.40;0.35;;;21.80;90.30;;;;;;4919055;29;20205;-71
2021/05/10 16:07:49;;;;;;;3.38;0.50;;;21.80;89.50;;;;;;4918795;29;20214;-72
2021/05/10 16:10:15;;;;;;;0.95;0.30;;;21.80;90.10;;;;;;4922015;29;20648;-72
2021/05/10 16:12:41;;;;;;;3.45;0.65;;;21.90;90.10;;;;;;4937637;29;20215;-70
2021/05/10 16:15:09;;;;;;;3.55;0.55;;;21.80;90.60;;;;;;4937970;29;20267;-71
2021/05/10 16:17:36;;;;;;;3.35;0.50;;;21.70;90.60;;;;;;4937565;29;20668;-73
2021/05/10 16:20:03;;;;;;;0.68;0.45;;;21.60;90.70;;;;;;4935699;29;20232;-72
2021/05/10 16:22:32;;;;;;;2.97;0.35;;;21.60;89.80;;;;;;4918547;29;20210;-70
2021/05/10 16:24:58;;;;;;;1.75;0.35;;;21.50;90.00;;;;;;4918620;29;20323;-70
2021/05/10 16:27:25;;;;;;;1.63;0.35;;;21.50;90.40;;;;;;4918457;29;20680;-71
2021/05/10 16:29:51;;;;;;;1.58;0.50;;;21.30;90.60;;;;;;4918133;29;20233;-73
2021/05/10 16:32:17;;;;;;;1.55;0.50;;;21.20;89.50;;;;;;4918617;29;20216;-73
2021/05/10 16:34:45;;;;;;;1.48;0.40;;;21.10;88.90;;;;;;4919769;29;20233;-74
2021/05/10 16:37:11;;;;;;;1.58;0.20;;;20.90;87.90;;;;;;4956913;29;20239;-78
2021/05/10 16:39:38;;;;;;;1.55;0.40;;;20.80;88.10;;;;;;4918224;29;20225;-74
2021/05/10 16:42:05;;;;;;;0.60;0.40;;;20.70;88.90;;;;;;4918218;29;20213;-74
2021/05/10 16:44:31;;;;;;;2.15;0.50;;;20.70;90.30;;;;;;4917744;29;20225;-71
2021/05/10 16:46:58;;;;;;;0.85;0.38;;;20.70;90.60;;;;;;4918338;29;20213;-71
2021/05/10 16:49:24;;;;;;;2.30;0.75;;;20.90;90.60;;;;;;4918213;29;20209;-72
2021/05/10 16:51:51;;;;;;;1.13;0.45;;;20.80;91.00;;;;;;4918157;29;20241;-73
2021/05/10 16:54:18;;;;;;;1.08;0.35;;;20.80;91.30;;;;;;4918162;29;20228;-75
2021/05/10 16:56:44;;;;;;;2.60;0.70;;;20.90;91.30;;;;;;4918021;29;20581;-70
2021/05/10 16:59:10;;;;;;;2.28;0.40;;;20.90;91.40;;;;;;4917811;29;20213;-74
2021/05/10 17:01:37;;;;;;;1.42;0.30;;;20.90;91.70;;;;;;4917685;29;20262;-70
2021/05/10 17:04:03;;;;;;;2.42;0.43;;;21.00;91.20;;;;;;4918316;29;20210;-74
2021/05/10 17:06:29;;;;;;;2.30;0.50;;;20.90;91.30;;;;;;4917687;29;20210;-70
2021/05/10 17:08:56;;;;;;;3.53;0.40;;;20.90;90.60;;;;;;4917839;29;20236;-71
2021/05/10 17:11:23;;;;;;;1.35;0.30;;;20.90;91.50;;;;;;4917421;29;20272;-74
2021/05/10 17:13:49;;;;;;;1.17;0.40;;;20.80;91.40;;;;;;4917623;29;20217;-74
2021/05/10 17:16:17;;;;;;;3.38;0.60;;;20.80;91.10;;;;;;4917394;29;20213;-73
2021/05/10 17:18:44;;;;;;;1.95;0.57;;;20.80;91.00;;;;;;4917333;29;20300;-72
2021/05/10 17:21:11;;;;;;;0.80;0.45;;;20.80;91.20;;;;;;4917380;29;20240;-72
2021/05/10 17:23:39;;;;;;;2.05;0.45;;;20.70;91.20;;;;;;4917590;29;20228;-71
2021/05/10 17:26:06;;;;;;;1.23;0.40;;;20.80;91.50;;;;;;4916770;29;20261;-70
2021/05/10 17:28:33;;;;;;;2.35;0.50;;;20.90;91.20;;;;;;4917172;29;20664;-70
2021/05/10 17:30:59;;;;;;;1.98;0.30;;;20.80;90.80;;;;;;4917253;29;20260;-73
2021/05/10 17:33:25;;;;;;;1.95;0.30;;;20.70;90.80;;;;;;4916947;29;20269;-72
2021/05/10 17:35:56;;;;;;;2.30;0.50;;;20.70;90.50;;;;;;4922181;29;20205;-71
2021/05/10 17:38:22;;;;;;;0.70;0.38;;;20.60;91.50;;;;;;4917177;29;20618;-72
2021/05/10 17:40:48;;;;;;;2.28;0.80;;;20.70;92.10;;;;;;4919499;29;20230;-72
2021/05/10 17:43:16;;;;;;;1.95;0.45;;;20.70;91.20;;;;;;4920740;29;20217;-71
2021/05/10 17:45:42;;;;;;;2.00;0.40;;;20.70;91.10;;;;;;4918439;29;20272;-72
2021/05/10 17:48:09;;;;;;;2.65;0.47;;;20.70;91.20;;;;;;4920976;29;20218;-72
2021/05/10 17:50:35;;;;;;;1.23;0.30;;;20.50;91.30;;;;;;4921216;29;20237;-72
2021/05/10 17:53:01;;;;;;;2.20;0.40;;;20.40;91.40;;;;;;4920706;29;20214;-71
2021/05/10 17:55:27;;;;;;;0.60;0.30;;;20.30;91.20;;;;;;4921962;29;20241;-71
2021/05/10 17:57:54;;;;;;;1.08;0.43;;;20.20;91.00;;;;;;4922231;29;20209;-72
2021/05/10 18:00:23;;;;;;;1.40;0.32;;;20.10;91.10;;;;;;4922321;29;20229;-72
2021/05/10 18:05:34;;;;;;;1.80;0.60;;;20.10;91.50;;;;;;4919764;29;20577;-72
2021/05/10 18:08:00;;;;;;;0.75;0.20;;;20.10;91.90;;;;;;4921312;29;20281;-70
2021/05/10 18:10:26;;;;;;;1.05;0.30;;;20.10;91.50;;;;;;4919808;29;20616;-70
2021/05/10 18:12:53;;;;;;;0.60;0.30;;;19.90;91.60;;;;;;4918823;29;20209;-71
2021/05/10 18:15:19;;;;;;;2.50;0.43;;;19.90;91.40;;;;;;4917699;29;20215;-72
2021/05/10 18:17:47;;;;;;;0.45;0.22;;;19.80;91.40;;;;;;4922298;29;20209;-71
2021/05/10 18:20:16;;;;;;;2.05;0.25;;;19.70;91.20;;;;;;4919180;29;20267;-71
2021/05/10 18:22:43;;;;;;;2.23;0.30;;;19.60;91.50;;;;;;4919883;29;20212;-71
2021/05/10 18:25:12;;;;;;;2.97;0.73;;;19.60;91.60;;;;;;4923288;29;20225;-71
2021/05/10 18:27:38;;;;;;;1.07;0.40;;;19.60;91.40;;;;;;4918813;29;20656;-71
2021/05/10 18:30:06;;;;;;;0.85;0.32;;;19.50;91.60;;;;;;4920069;29;20230;-71
2021/05/10 18:32:33;;;;;;;1.13;0.30;;;19.40;92.00;;;;;;4918914;29;20217;-71
2021/05/10 18:35:02;;;;;;;1.00;0.40;;;19.50;91.70;;;;;;4920161;29;20215;-71
2021/05/10 18:37:36;;;;;;;0.80;0.40;;;19.40;91.90;;;;;;4920282;29;20213;-77
2021/05/10 18:40:04;;;;;;;1.90;0.30;;;19.30;92.50;;;;;;4922448;29;20634;-77
2021/05/10 18:42:30;;;;;;;0.73;0.40;;;19.20;92.40;;;;;;4925704;29;20236;-72
2021/05/10 18:44:57;;;;;;;2.40;0.50;;;19.10;92.10;;;;;;4923814;29;20664;-72
2021/05/10 18:47:25;;;;;;;1.67;0.30;;;19.10;92.40;;;;;;4928373;29;20286;-71
2021/05/10 18:49:58;;;;;;;0.50;0.30;;;19.00;92.40;;;;;;4922878;29;20226;-70
2021/05/10 18:52:25;;;;;;;0.77;0.27;;;18.90;92.40;;;;;;4922444;29;20618;-74
2021/05/10 18:54:52;;;;;;;1.53;0.40;;;18.90;92.30;;;;;;4923908;29;20204;-74
2021/05/10 18:57:18;;;;;;;2.23;0.60;;;18.90;93.20;;;;;;4925732;29;20216;-74
2021/05/10 18:59:44;;;;;;;1.53;0.40;;;18.90;93.40;;;;;;4924391;29;20233;-74
2021/05/10 19:02:10;;;;;;;2.33;0.30;;;18.80;94.00;;;;;;4925241;29;20214;-73
2021/05/10 19:04:37;;;;;;;1.63;0.47;;;18.70;94.10;;;;;;4923279;29;20214;-73
2021/05/10 19:07:06;;;;;;;1.10;0.47;;;18.60;93.70;;;;;;4923119;29;20208;-72
2021/05/10 19:09:33;;;;;;;4.03;0.80;;;18.60;94.60;;;;;;4930668;29;20917;-73
2021/05/10 19:11:59;;;;;;;2.23;0.60;;;18.60;94.20;;;;;;4921254;29;20249;-73
2021/05/10 19:14:25;;;;;;;1.10;0.40;;;18.60;94.40;;;;;;4923598;29;20723;-72
2021/05/10 19:16:52;;;;;;;2.83;0.50;;;18.60;95.00;;;;;;4925434;29;20214;-73
2021/05/10 19:19:18;;;;;;;2.17;0.40;;;18.60;95.60;;;;;;4922868;29;20217;-72
2021/05/10 19:21:44;;;;;;;1.50;0.40;;;18.50;96.10;;;;;;4924992;29;20569;-72
2021/05/10 19:24:11;;;;;;;3.17;0.60;;;18.50;96.30;;;;;;4923508;29;20214;-73
2021/05/10 19:26:40;;;;;;;1.93;0.40;;;18.40;96.40;;;;;;4926021;29;20220;-73
2021/05/10 19:29:07;;;;;;;3.07;0.40;;;18.40;96.50;;;;;;4924059;29;20209;-72
2021/05/10 19:31:33;;;;;;;2.27;0.50;;;18.30;96.80;;;;;;4924421;29;20241;-73
2021/05/10 19:33:59;;;;;;;1.70;0.50;;;18.30;96.70;;;;;;4925045;29;20272;-73
2021/05/10 19:36:25;;;;;;;1.63;0.60;;;18.20;96.80;;;;;;4925191;29;20233;-72
2021/05/10 19:38:51;;;;;;;2.47;0.43;;;18.10;96.40;;;;;;4926806;29;20210;-72
2021/05/10 19:41:18;;;;;;;2.47;0.53;;;18.10;97.10;;;;;;4924556;29;20697;-73
2021/05/10 19:43:45;;;;;;;0.87;0.40;;;18.00;97.50;;;;;;4923982;29;20569;-73
2021/05/10 19:46:12;;;;;;;1.90;0.37;;;18.00;98.20;;;;;;4925528;29;20220;-73
2021/05/10 19:48:41;;;;;;;2.00;0.60;;;18.00;98.60;;;;;;4923781;29;20223;-73
2021/05/10 19:51:26;;;;;;;0.87;0.60;;;17.80;98.70;;;;;;4925390;29;20237;-72
2021/05/10 19:57:06;;;;;;;2.97;0.50;;;17.80;98.90;;;;;;4921481;29;20252;-73
2021/05/10 19:59:49;;;;;;;1.20;0.50;;;17.70;99.10;;;;;;4922182;29;20208;-73
2021/05/10 20:02:20;;;;;;;1.10;0.40;;;17.70;99.20;;;;;;4927310;29;20264;-73
2021/05/10 20:04:46;;;;;;;2.93;0.73;;;17.60;99.70;;;;;;4926957;29;20280;-73
2021/05/10 20:07:12;;;;;;;2.27;0.50;;;17.60;99.90;;;;;;4924793;29;20210;-73
2021/05/10 20:09:38;;;;;;;2.77;0.57;;;17.60;99.90;;;;;;4919901;29;20773;-73
2021/05/10 20:12:05;;;;;;;3.53;0.50;;;17.60;99.90;;;;;;4924806;29;20707;-73
2021/05/10 20:14:32;;;;;;;2.53;0.50;;;17.60;99.90;;;;;;4924026;29;20684;-73
2021/05/10 20:16:58;;;;;;;1.70;0.50;;;17.50;99.90;;;;;;4922303;29;20217;-73
2021/05/10 20:19:25;;;;;;;1.37;0.57;;;17.50;99.90;;;;;;4920018;29;20569;-73
2021/05/10 20:21:53;;;;;;;1.47;0.50;;;17.40;99.90;;;;;;4926756;29;20218;-73
2021/05/10 20:24:19;;;;;;;0.90;0.40;;;17.30;99.90;;;;;;4919322;29;20635;-73
2021/05/10 20:26:45;;;;;;;1.93;0.70;;;17.20;99.90;;;;;;4925286;29;20217;-73
2021/05/10 20:29:12;;;;;;;2.53;0.43;;;17.30;99.90;;;;;;4924824;29;20249;-73
2021/05/10 20:31:40;;;;;;;2.63;0.60;;;17.20;99.90;;;;;;4922845;29;20293;-74
2021/05/10 20:34:06;;;;;;;2.50;0.50;;;17.20;99.90;;;;;;4926913;29;20216;-74
2021/05/10 20:36:32;;;;;;;1.63;0.67;;;17.20;99.90;;;;;;4924213;29;20213;-73
2021/05/10 20:38:59;;;;;;;1.40;0.70;;;17.20;99.90;;;;;;4924277;29;20216;-73
2021/05/10 20:41:25;;;;;;;0.87;0.50;;;17.20;99.90;;;;;;4919840;29;20273;-73
2021/05/10 20:43:51;;;;;;;1.87;0.70;;;17.10;99.90;;;;;;4920787;29;20221;-72
2021/05/10 20:46:18;;;;;;;2.27;0.80;;;17.10;99.90;;;;;;4924751;29;20237;-73
2021/05/10 20:48:45;;;;;;;1.67;0.57;;;17.10;99.90;;;;;;4922852;29;20244;-73
2021/05/10 20:51:11;;;;;;;1.10;0.60;;;17.10;99.90;;;;;;4922013;29;20241;-73
2021/05/10 20:53:37;;;;;;;4.00;1.00;;;17.10;99.90;;;;;;4920365;29;20220;-72
2021/05/10 20:56:04;;;;;;;2.30;0.60;;;17.00;99.90;;;;;;4924725;29;20504;-73